sensor_id;sensor_type;location;lat;lon;timestamp;temperature;humidity
7998;DHT22;4044;49.814;7.828;2022-11-15T00:00:51;8.30;99.90
7998;DHT22;4044;49.814;7.828;2022-11-15T00:03:19;8.30;99.90
7998;DHT22;4044;49.814;7.828;2022-11-15T00:05:45;8.30;99.90
7998;DHT22;4044;49.814;7.828;2022-11-15T00:08:11;8.30;99.90
7998;DHT22;4044;49.814;7.828;2022-11-15T00:10:37;8.40;99.90
7998;DHT22;4044;49.814;7.828;2022-11-15T00:13:11;8.40;99.90
7998;DHT22;4044;49.814;7.828;2022-11-15T00:15:38;8.40;99.90
7998;DHT22;4044;49.814;7.828;2022-11-15T00:18:05;8.40;99.90
7998;DHT22;4044;49.814;7.828;2022-11-15T00:20:33;8.30;99.90
7998;DHT22;4044;49.814;7.828;2022-11-15T00:22:59;8.30;99.90
7998;DHT22;4044;49.814;7.828;2022-11-15T00:25:25;8.20;99.90
7998;DHT22;4044;49.814;7.828;2022-11-15T00:27:54;8.10;99.90
7998;DHT22;4044;49.814;7.828;2022-11-15T00:30:19;8.00;99.90
7998;DHT22;4044;49.814;7.828;2022-11-15T00:32:45;8.10;99.90
7998;DHT22;4044;49.814;7.828;2022-11-15T00:35:10;8.20;99.90
7998;DHT22;4044;49.814;7.828;2022-11-15T00:37:36;8.20;99.90
7998;DHT22;4044;49.814;7.828;2022-11-15T00:40:01;8.40;99.90
7998;DHT22;4044;49.814;7.828;2022-11-15T00:42:27;8.50;99.90
7998;DHT22;4044;49.814;7.828;2022-11-15T00:44:52;8.70;99.90
7998;DHT22;4044;49.814;7.828;2022-11-15T00:47:18;8.80;99.90
7998;DHT22;4044;49.814;7.828;2022-11-15T00:49:43;8.90;99.90
7998;DHT22;4044;49.814;7.828;2022-11-15T00:52:09;8.90;99.90
7998;DHT22;4044;49.814;7.828;2022-11-15T00:54:34;9.00;99.90
7998;DHT22;4044;49.814;7.828;2022-11-15T00:57:00;9.10;99.90
7998;DHT22;4044;49.814;7.828;2022-11-15T00:59:25;9.10;99.90
7998;DHT22;4044;49.814;7.828;2022-11-15T01:01:51;9.20;99.90
7998;DHT22;4044;49.814;7.828;2022-11-15T01:04:16;9.20;99.90
7998;DHT22;4044;49.814;7.828;2022-11-15T01:06:42;9.20;99.90
7998;DHT22;4044;49.814;7.828;2022-11-15T01:09:08;9.20;99.90
7998;DHT22;4044;49.814;7.828;2022-11-15T01:11:33;9.20;99.90
7998;DHT22;4044;49.814;7.828;2022-11-15T01:13:59;9.30;99.90
7998;DHT22;4044;49.814;7.828;2022-11-15T01:16:24;9.40;99.90
7998;DHT22;4044;49.814;7.828;2022-11-15T01:18:50;9.40;99.90
7998;DHT22;4044;49.814;7.828;2022-11-15T01:21:18;9.50;99.90
7998;DHT22;4044;49.814;7.828;2022-11-15T01:23:44;9.60;99.90
7998;DHT22;4044;49.814;7.828;2022-11-15T01:26:13;9.60;99.90
7998;DHT22;4044;49.814;7.828;2022-11-15T01:28:41;9.70;99.90
7998;DHT22;4044;49.814;7.828;2022-11-15T01:31:14;9.70;99.90
7998;DHT22;4044;49.814;7.828;2022-11-15T01:33:40;9.70;99.90
7998;DHT22;4044;49.814;7.828;2022-11-15T01:36:10;9.80;99.90
7998;DHT22;4044;49.814;7.828;2022-11-15T01:38:37;9.70;99.90
7998;DHT22;4044;49.814;7.828;2022-11-15T01:41:03;9.60;99.90
7998;DHT22;4044;49.814;7.828;2022-11-15T01:43:31;9.40;99.90
7998;DHT22;4044;49.814;7.828;2022-11-15T01:46:29;9.50;99.90
7998;DHT22;4044;49.814;7.828;2022-11-15T01:48:59;9.50;99.90
7998;DHT22;4044;49.814;7.828;2022-11-15T01:51:27;9.60;99.90
7998;DHT22;4044;49.814;7.828;2022-11-15T01:53:56;9.60;99.90
7998;DHT22;4044;49.814;7.828;2022-11-15T01:56:27;9.60;99.90
7998;DHT22;4044;49.814;7.828;2022-11-15T01:58:57;9.70;99.90
7998;DHT22;4044;49.814;7.828;2022-11-15T02:01:24;9.70;99.90
7998;DHT22;4044;49.814;7.828;2022-11-15T02:03:56;9.70;99.90
7998;DHT22;4044;49.814;7.828;2022-11-15T02:06:23;9.80;99.90
7998;DHT22;4044;49.814;7.828;2022-11-15T02:08:49;9.90;99.90
7998;DHT22;4044;49.814;7.828;2022-11-15T02:11:15;9.90;99.90
7998;DHT22;4044;49.814;7.828;2022-11-15T02:13:42;9.80;99.90
7998;DHT22;4044;49.814;7.828;2022-11-15T02:24:51;9.70;99.90
7998;DHT22;4044;49.814;7.828;2022-11-15T02:27:51;9.80;99.90
7998;DHT22;4044;49.814;7.828;2022-11-15T02:30:43;9.70;99.90
7998;DHT22;4044;49.814;7.828;2022-11-15T02:35:55;9.90;99.90
7998;DHT22;4044;49.814;7.828;2022-11-15T02:38:29;10.00;99.90
7998;DHT22;4044;49.814;7.828;2022-11-15T02:41:06;10.00;99.90
7998;DHT22;4044;49.814;7.828;2022-11-15T02:47:06;9.60;99.90
7998;DHT22;4044;49.814;7.828;2022-11-15T02:49:46;9.40;99.90
7998;DHT22;4044;49.814;7.828;2022-11-15T02:52:20;9.30;99.90
7998;DHT22;4044;49.814;7.828;2022-11-15T02:54:57;9.30;99.90
7998;DHT22;4044;49.814;7.828;2022-11-15T03:05:25;9.50;99.90
7998;DHT22;4044;49.814;7.828;2022-11-15T03:11:19;9.60;99.90
7998;DHT22;4044;49.814;7.828;2022-11-15T03:16:51;9.70;99.90
7998;DHT22;4044;49.814;7.828;2022-11-15T03:19:54;9.70;99.90
7998;DHT22;4044;49.814;7.828;2022-11-15T03:22:23;9.80;99.90
7998;DHT22;4044;49.814;7.828;2022-11-15T03:24:56;9.70;99.90
7998;DHT22;4044;49.814;7.828;2022-11-15T03:27:26;9.60;99.90
7998;DHT22;4044;49.814;7.828;2022-11-15T03:29:59;9.40;99.90
7998;DHT22;4044;49.814;7.828;2022-11-15T03:32:28;9.50;99.90
7998;DHT22;4044;49.814;7.828;2022-11-15T03:35:05;9.50;99.90
7998;DHT22;4044;49.814;7.828;2022-11-15T03:37:37;9.60;99.90
7998;DHT22;4044;49.814;7.828;2022-11-15T03:40:04;9.50;99.90
7998;DHT22;4044;49.814;7.828;2022-11-15T03:45:40;9.60;99.90
7998;DHT22;4044;49.814;7.828;2022-11-15T03:48:14;9.70;99.90
7998;DHT22;4044;49.814;7.828;2022-11-15T03:50:42;9.80;99.90
7998;DHT22;4044;49.814;7.828;2022-11-15T03:53:09;9.70;99.90
7998;DHT22;4044;49.814;7.828;2022-11-15T03:55:35;9.70;99.90
7998;DHT22;4044;49.814;7.828;2022-11-15T03:58:01;9.70;99.90
7998;DHT22;4044;49.814;7.828;2022-11-15T04:00:27;9.80;99.90
7998;DHT22;4044;49.814;7.828;2022-11-15T04:02:53;9.80;99.90
7998;DHT22;4044;49.814;7.828;2022-11-15T04:05:19;9.80;99.90
7998;DHT22;4044;49.814;7.828;2022-11-15T04:07:44;9.80;99.90
7998;DHT22;4044;49.814;7.828;2022-11-15T04:10:11;9.80;99.90
7998;DHT22;4044;49.814;7.828;2022-11-15T04:12:39;9.80;99.90
7998;DHT22;4044;49.814;7.828;2022-11-15T04:17:39;9.90;99.90
7998;DHT22;4044;49.814;7.828;2022-11-15T04:20:16;9.90;99.90
7998;DHT22;4044;49.814;7.828;2022-11-15T04:23:03;10.00;99.90
7998;DHT22;4044;49.814;7.828;2022-11-15T04:25:50;10.00;99.90
7998;DHT22;4044;49.814;7.828;2022-11-15T04:28:17;10.00;99.90
7998;DHT22;4044;49.814;7.828;2022-11-15T04:30:42;10.00;99.90
7998;DHT22;4044;49.814;7.828;2022-11-15T04:33:08;10.10;99.90
7998;DHT22;4044;49.814;7.828;2022-11-15T04:35:33;9.90;99.90
7998;DHT22;4044;49.814;7.828;2022-11-15T04:38:00;10.00;99.90
7998;DHT22;4044;49.814;7.828;2022-11-15T04:40:26;9.90;99.90
7998;DHT22;4044;49.814;7.828;2022-11-15T04:42:51;9.60;99.90
7998;DHT22;4044;49.814;7.828;2022-11-15T04:45:17;9.40;99.90
7998;DHT22;4044;49.814;7.828;2022-11-15T04:47:46;9.20;99.90
7998;DHT22;4044;49.814;7.828;2022-11-15T04:50:12;9.00;99.90
7998;DHT22;4044;49.814;7.828;2022-11-15T04:52:40;8.80;99.90
7998;DHT22;4044;49.814;7.828;2022-11-15T04:55:06;8.60;99.90
7998;DHT22;4044;49.814;7.828;2022-11-15T04:57:32;8.50;99.90
7998;DHT22;4044;49.814;7.828;2022-11-15T04:59:57;8.40;99.90
7998;DHT22;4044;49.814;7.828;2022-11-15T05:02:23;8.40;99.90
7998;DHT22;4044;49.814;7.828;2022-11-15T05:04:48;8.30;99.90
7998;DHT22;4044;49.814;7.828;2022-11-15T05:07:14;8.30;99.90
7998;DHT22;4044;49.814;7.828;2022-11-15T05:09:39;8.40;99.90
7998;DHT22;4044;49.814;7.828;2022-11-15T05:12:05;8.30;99.90
7998;DHT22;4044;49.814;7.828;2022-11-15T05:14:30;8.40;99.90
7998;DHT22;4044;49.814;7.828;2022-11-15T05:16:56;8.50;99.90
7998;DHT22;4044;49.814;7.828;2022-11-15T05:19:21;8.60;99.90
7998;DHT22;4044;49.814;7.828;2022-11-15T05:21:47;8.80;99.90
7998;DHT22;4044;49.814;7.828;2022-11-15T05:24:13;9.00;99.90
7998;DHT22;4044;49.814;7.828;2022-11-15T05:26:38;9.10;99.90
7998;DHT22;4044;49.814;7.828;2022-11-15T05:29:04;9.00;99.90
7998;DHT22;4044;49.814;7.828;2022-11-15T05:31:29;9.10;99.90
7998;DHT22;4044;49.814;7.828;2022-11-15T05:33:55;9.20;99.90
7998;DHT22;4044;49.814;7.828;2022-11-15T05:38:59;9.20;99.90
7998;DHT22;4044;49.814;7.828;2022-11-15T05:41:30;9.20;99.90
7998;DHT22;4044;49.814;7.828;2022-11-15T05:43:56;9.20;99.90
7998;DHT22;4044;49.814;7.828;2022-11-15T05:46:22;9.10;99.90
7998;DHT22;4044;49.814;7.828;2022-11-15T05:48:49;8.90;99.90
7998;DHT22;4044;49.814;7.828;2022-11-15T05:51:16;8.80;99.90
7998;DHT22;4044;49.814;7.828;2022-11-15T05:53:44;8.70;99.90
7998;DHT22;4044;49.814;7.828;2022-11-15T05:56:10;8.60;99.90
7998;DHT22;4044;49.814;7.828;2022-11-15T05:58:36;8.50;99.90
7998;DHT22;4044;49.814;7.828;2022-11-15T06:01:02;8.50;99.90
7998;DHT22;4044;49.814;7.828;2022-11-15T06:03:28;8.30;99.90
7998;DHT22;4044;49.814;7.828;2022-11-15T06:05:54;8.20;99.90
7998;DHT22;4044;49.814;7.828;2022-11-15T06:08:19;8.00;99.90
7998;DHT22;4044;49.814;7.828;2022-11-15T06:10:45;7.90;99.90
7998;DHT22;4044;49.814;7.828;2022-11-15T06:13:10;7.90;99.90
7998;DHT22;4044;49.814;7.828;2022-11-15T06:15:36;7.90;99.90
7998;DHT22;4044;49.814;7.828;2022-11-15T06:18:02;7.90;99.90
7998;DHT22;4044;49.814;7.828;2022-11-15T06:20:29;8.00;99.90
7998;DHT22;4044;49.814;7.828;2022-11-15T06:23:02;8.00;99.90
7998;DHT22;4044;49.814;7.828;2022-11-15T06:25:29;8.00;99.90
7998;DHT22;4044;49.814;7.828;2022-11-15T06:27:56;7.70;99.90
7998;DHT22;4044;49.814;7.828;2022-11-15T06:30:23;7.70;99.90
7998;DHT22;4044;49.814;7.828;2022-11-15T06:32:49;7.80;99.90
7998;DHT22;4044;49.814;7.828;2022-11-15T06:35:14;7.90;99.90
7998;DHT22;4044;49.814;7.828;2022-11-15T06:37:40;8.00;99.90
7998;DHT22;4044;49.814;7.828;2022-11-15T06:40:08;8.10;99.90
7998;DHT22;4044;49.814;7.828;2022-11-15T06:42:34;8.00;99.90
7998;DHT22;4044;49.814;7.828;2022-11-15T06:44:59;8.00;99.90
7998;DHT22;4044;49.814;7.828;2022-11-15T06:47:25;8.00;99.90
7998;DHT22;4044;49.814;7.828;2022-11-15T06:49:50;8.00;99.90
7998;DHT22;4044;49.814;7.828;2022-11-15T06:52:16;8.00;99.90
7998;DHT22;4044;49.814;7.828;2022-11-15T06:54:43;8.10;99.90
7998;DHT22;4044;49.814;7.828;2022-11-15T06:57:09;8.10;99.90
7998;DHT22;4044;49.814;7.828;2022-11-15T06:59:36;8.10;99.90
7998;DHT22;4044;49.814;7.828;2022-11-15T07:02:02;8.10;99.90
7998;DHT22;4044;49.814;7.828;2022-11-15T07:04:27;8.00;99.90
7998;DHT22;4044;49.814;7.828;2022-11-15T07:06:53;8.00;99.90
7998;DHT22;4044;49.814;7.828;2022-11-15T07:09:18;8.00;99.90
7998;DHT22;4044;49.814;7.828;2022-11-15T07:11:44;8.00;99.90
7998;DHT22;4044;49.814;7.828;2022-11-15T07:14:09;8.00;99.90
7998;DHT22;4044;49.814;7.828;2022-11-15T07:16:36;8.00;99.90
7998;DHT22;4044;49.814;7.828;2022-11-15T07:19:02;7.90;99.90
7998;DHT22;4044;49.814;7.828;2022-11-15T07:21:27;7.90;99.90
7998;DHT22;4044;49.814;7.828;2022-11-15T07:23:53;7.90;99.90
7998;DHT22;4044;49.814;7.828;2022-11-15T07:26:18;8.00;99.90
7998;DHT22;4044;49.814;7.828;2022-11-15T07:28:44;8.10;99.90
7998;DHT22;4044;49.814;7.828;2022-11-15T07:31:11;8.10;99.90
7998;DHT22;4044;49.814;7.828;2022-11-15T07:33:36;8.10;99.90
7998;DHT22;4044;49.814;7.828;2022-11-15T07:36:03;8.20;99.90
7998;DHT22;4044;49.814;7.828;2022-11-15T07:38:29;8.20;99.90
7998;DHT22;4044;49.814;7.828;2022-11-15T07:40:57;8.30;99.90
7998;DHT22;4044;49.814;7.828;2022-11-15T07:43:23;8.30;99.90
7998;DHT22;4044;49.814;7.828;2022-11-15T07:45:48;8.30;99.90
7998;DHT22;4044;49.814;7.828;2022-11-15T07:48:14;8.40;99.90
7998;DHT22;4044;49.814;7.828;2022-11-15T07:50:43;8.50;99.90
7998;DHT22;4044;49.814;7.828;2022-11-15T07:53:09;8.60;99.90
7998;DHT22;4044;49.814;7.828;2022-11-15T07:55:35;8.50;99.90
7998;DHT22;4044;49.814;7.828;2022-11-15T08:00:27;8.60;99.90
7998;DHT22;4044;49.814;7.828;2022-11-15T08:02:53;8.60;99.90
7998;DHT22;4044;49.814;7.828;2022-11-15T08:05:26;8.60;99.90
7998;DHT22;4044;49.814;7.828;2022-11-15T08:07:51;8.70;99.90
7998;DHT22;4044;49.814;7.828;2022-11-15T08:10:17;8.80;99.90
7998;DHT22;4044;49.814;7.828;2022-11-15T08:12:44;8.80;99.90
7998;DHT22;4044;49.814;7.828;2022-11-15T08:15:09;9.00;99.90
7998;DHT22;4044;49.814;7.828;2022-11-15T08:17:35;9.10;99.90
7998;DHT22;4044;49.814;7.828;2022-11-15T08:20:01;9.20;99.90
7998;DHT22;4044;49.814;7.828;2022-11-15T08:22:26;9.30;99.90
7998;DHT22;4044;49.814;7.828;2022-11-15T08:24:52;9.30;99.90
7998;DHT22;4044;49.814;7.828;2022-11-15T08:27:17;9.40;99.90
7998;DHT22;4044;49.814;7.828;2022-11-15T08:29:43;9.50;99.90
7998;DHT22;4044;49.814;7.828;2022-11-15T08:32:10;9.60;99.90
7998;DHT22;4044;49.814;7.828;2022-11-15T08:34:37;9.70;99.90
7998;DHT22;4044;49.814;7.828;2022-11-15T08:37:03;9.80;99.90
7998;DHT22;4044;49.814;7.828;2022-11-15T08:39:28;9.90;99.90
7998;DHT22;4044;49.814;7.828;2022-11-15T08:41:54;10.00;99.90
7998;DHT22;4044;49.814;7.828;2022-11-15T08:44:19;10.10;99.90
7998;DHT22;4044;49.814;7.828;2022-11-15T08:46:48;10.20;99.90
7998;DHT22;4044;49.814;7.828;2022-11-15T08:49:13;10.40;99.90
7998;DHT22;4044;49.814;7.828;2022-11-15T08:51:39;10.40;99.90
7998;DHT22;4044;49.814;7.828;2022-11-15T08:54:04;10.60;99.90
7998;DHT22;4044;49.814;7.828;2022-11-15T08:56:30;10.80;99.90
7998;DHT22;4044;49.814;7.828;2022-11-15T08:58:56;10.90;99.90
7998;DHT22;4044;49.814;7.828;2022-11-15T09:01:22;11.00;99.90
7998;DHT22;4044;49.814;7.828;2022-11-15T09:03:47;11.10;99.90
7998;DHT22;4044;49.814;7.828;2022-11-15T09:06:13;11.20;99.90
7998;DHT22;4044;49.814;7.828;2022-11-15T09:08:39;11.40;99.90
7998;DHT22;4044;49.814;7.828;2022-11-15T09:11:06;11.40;99.90
7998;DHT22;4044;49.814;7.828;2022-11-15T09:13:32;11.50;99.90
7998;DHT22;4044;49.814;7.828;2022-11-15T09:15:59;11.60;99.90
7998;DHT22;4044;49.814;7.828;2022-11-15T09:18:24;11.70;99.90
7998;DHT22;4044;49.814;7.828;2022-11-15T09:20:50;11.70;99.90
7998;DHT22;4044;49.814;7.828;2022-11-15T09:23:16;11.70;99.90
7998;DHT22;4044;49.814;7.828;2022-11-15T09:25:41;11.80;99.90
7998;DHT22;4044;49.814;7.828;2022-11-15T09:28:07;11.80;99.90
7998;DHT22;4044;49.814;7.828;2022-11-15T09:30:33;11.90;99.90
7998;DHT22;4044;49.814;7.828;2022-11-15T09:32:59;12.00;99.90
7998;DHT22;4044;49.814;7.828;2022-11-15T09:35:31;12.10;99.90
7998;DHT22;4044;49.814;7.828;2022-11-15T09:37:57;12.20;99.90
7998;DHT22;4044;49.814;7.828;2022-11-15T09:40:24;12.20;99.90
7998;DHT22;4044;49.814;7.828;2022-11-15T09:42:52;12.40;99.90
7998;DHT22;4044;49.814;7.828;2022-11-15T09:45:40;12.20;99.90
7998;DHT22;4044;49.814;7.828;2022-11-15T09:51:04;12.40;99.90
7998;DHT22;4044;49.814;7.828;2022-11-15T09:53:46;12.50;99.90
7998;DHT22;4044;49.814;7.828;2022-11-15T09:56:22;12.50;99.90
7998;DHT22;4044;49.814;7.828;2022-11-15T09:59:16;12.50;99.90
7998;DHT22;4044;49.814;7.828;2022-11-15T10:01:53;12.50;99.90
7998;DHT22;4044;49.814;7.828;2022-11-15T10:04:23;12.50;99.90
7998;DHT22;4044;49.814;7.828;2022-11-15T10:06:57;12.50;99.90
7998;DHT22;4044;49.814;7.828;2022-11-15T10:09:27;12.50;99.90
7998;DHT22;4044;49.814;7.828;2022-11-15T10:11:54;12.70;99.90
7998;DHT22;4044;49.814;7.828;2022-11-15T10:14:22;12.70;99.90
7998;DHT22;4044;49.814;7.828;2022-11-15T10:17:02;12.80;99.90
7998;DHT22;4044;49.814;7.828;2022-11-15T10:22:25;13.00;99.90
7998;DHT22;4044;49.814;7.828;2022-11-15T10:25:00;13.10;99.90
7998;DHT22;4044;49.814;7.828;2022-11-15T10:27:34;13.30;99.90
7998;DHT22;4044;49.814;7.828;2022-11-15T10:30:00;13.30;99.90
7998;DHT22;4044;49.814;7.828;2022-11-15T10:32:26;13.30;99.90
7998;DHT22;4044;49.814;7.828;2022-11-15T10:34:52;13.50;99.90
7998;DHT22;4044;49.814;7.828;2022-11-15T10:37:29;13.70;99.90
7998;DHT22;4044;49.814;7.828;2022-11-15T10:40:27;14.00;99.90
7998;DHT22;4044;49.814;7.828;2022-11-15T10:43:16;14.10;99.90
7998;DHT22;4044;49.814;7.828;2022-11-15T10:45:43;14.20;99.90
7998;DHT22;4044;49.814;7.828;2022-11-15T10:50:45;14.30;99.90
7998;DHT22;4044;49.814;7.828;2022-11-15T10:53:26;14.30;99.90
7998;DHT22;4044;49.814;7.828;2022-11-15T10:55:56;14.50;99.90
7998;DHT22;4044;49.814;7.828;2022-11-15T10:58:36;14.50;99.90
7998;DHT22;4044;49.814;7.828;2022-11-15T11:01:15;14.60;99.90
7998;DHT22;4044;49.814;7.828;2022-11-15T11:03:43;14.60;99.90
7998;DHT22;4044;49.814;7.828;2022-11-15T11:08:34;14.60;99.90
7998;DHT22;4044;49.814;7.828;2022-11-15T11:11:01;14.70;99.90
7998;DHT22;4044;49.814;7.828;2022-11-15T11:13:33;15.00;99.90
7998;DHT22;4044;49.814;7.828;2022-11-15T11:16:17;15.20;99.90
7998;DHT22;4044;49.814;7.828;2022-11-15T11:21:15;15.30;99.90
7998;DHT22;4044;49.814;7.828;2022-11-15T11:24:10;15.30;99.90
7998;DHT22;4044;49.814;7.828;2022-11-15T11:26:48;15.50;99.90
7998;DHT22;4044;49.814;7.828;2022-11-15T11:35:14;15.90;99.90
7998;DHT22;4044;49.814;7.828;2022-11-15T11:41:09;16.10;99.90
7998;DHT22;4044;49.814;7.828;2022-11-15T11:52:33;16.60;99.90
7998;DHT22;4044;49.814;7.828;2022-11-15T11:55:16;16.80;99.90
7998;DHT22;4044;49.814;7.828;2022-11-15T12:00:20;16.90;99.90
7998;DHT22;4044;49.814;7.828;2022-11-15T12:05:49;17.30;99.90
7998;DHT22;4044;49.814;7.828;2022-11-15T12:15:02;17.60;99.90
7998;DHT22;4044;49.814;7.828;2022-11-15T12:17:02;17.70;99.90
7998;DHT22;4044;49.814;7.828;2022-11-15T12:19:29;17.60;99.90
7998;DHT22;4044;49.814;7.828;2022-11-15T12:22:03;17.60;99.90
7998;DHT22;4044;49.814;7.828;2022-11-15T12:27:16;17.80;99.90
7998;DHT22;4044;49.814;7.828;2022-11-15T12:29:52;18.00;99.90
7998;DHT22;4044;49.814;7.828;2022-11-15T12:32:26;18.20;99.90
7998;DHT22;4044;49.814;7.828;2022-11-15T12:34:54;18.20;99.90
7998;DHT22;4044;49.814;7.828;2022-11-15T12:37:33;18.50;99.90
7998;DHT22;4044;49.814;7.828;2022-11-15T12:43:07;19.20;99.90
7998;DHT22;4044;49.814;7.828;2022-11-15T12:45:37;19.50;99.70
7998;DHT22;4044;49.814;7.828;2022-11-15T12:58:59;20.10;98.00
7998;DHT22;4044;49.814;7.828;2022-11-15T13:04:21;20.40;97.30
7998;DHT22;4044;49.814;7.828;2022-11-15T13:07:04;20.70;96.90
7998;DHT22;4044;49.814;7.828;2022-11-15T13:17:24;21.60;95.10
7998;DHT22;4044;49.814;7.828;2022-11-15T13:22:49;21.10;95.10
7998;DHT22;4044;49.814;7.828;2022-11-15T13:33:17;20.20;95.90
7998;DHT22;4044;49.814;7.828;2022-11-15T13:35:46;20.10;96.00
7998;DHT22;4044;49.814;7.828;2022-11-15T13:38:28;20.00;96.40
7998;DHT22;4044;49.814;7.828;2022-11-15T13:40:55;19.80;95.90
7998;DHT22;4044;49.814;7.828;2022-11-15T13:46:17;19.30;96.40
7998;DHT22;4044;49.814;7.828;2022-11-15T13:48:44;18.90;96.70
7998;DHT22;4044;49.814;7.828;2022-11-15T13:53:54;18.50;97.30
7998;DHT22;4044;49.814;7.828;2022-11-15T13:56:20;18.40;97.70
7998;DHT22;4044;49.814;7.828;2022-11-15T13:58:46;18.30;97.80
7998;DHT22;4044;49.814;7.828;2022-11-15T14:01:18;18.20;98.00
7998;DHT22;4044;49.814;7.828;2022-11-15T14:03:57;17.90;97.90
7998;DHT22;4044;49.814;7.828;2022-11-15T14:06:25;17.70;98.10
7998;DHT22;4044;49.814;7.828;2022-11-15T14:11:36;17.20;98.80
7998;DHT22;4044;49.814;7.828;2022-11-15T14:14:11;17.20;98.90
7998;DHT22;4044;49.814;7.828;2022-11-15T14:16:43;16.80;99.10
7998;DHT22;4044;49.814;7.828;2022-11-15T14:19:13;16.50;99.40
7998;DHT22;4044;49.814;7.828;2022-11-15T14:24:41;16.30;99.80
7998;DHT22;4044;49.814;7.828;2022-11-15T14:27:27;16.30;99.90
7998;DHT22;4044;49.814;7.828;2022-11-15T14:29:54;16.30;99.90
7998;DHT22;4044;49.814;7.828;2022-11-15T14:34:46;16.40;99.90
7998;DHT22;4044;49.814;7.828;2022-11-15T14:37:33;16.20;99.90
7998;DHT22;4044;49.814;7.828;2022-11-15T14:40:01;16.20;99.90
7998;DHT22;4044;49.814;7.828;2022-11-15T14:42:27;16.20;99.90
7998;DHT22;4044;49.814;7.828;2022-11-15T14:44:52;16.20;99.90
7998;DHT22;4044;49.814;7.828;2022-11-15T14:47:18;16.20;99.90
7998;DHT22;4044;49.814;7.828;2022-11-15T14:49:44;16.20;99.90
7998;DHT22;4044;49.814;7.828;2022-11-15T14:52:30;16.10;99.90
7998;DHT22;4044;49.814;7.828;2022-11-15T14:54:59;16.20;99.90
7998;DHT22;4044;49.814;7.828;2022-11-15T14:57:26;16.30;99.90
7998;DHT22;4044;49.814;7.828;2022-11-15T14:59:52;16.40;99.90
7998;DHT22;4044;49.814;7.828;2022-11-15T15:02:22;16.30;99.90
7998;DHT22;4044;49.814;7.828;2022-11-15T15:04:48;16.30;99.90
7998;DHT22;4044;49.814;7.828;2022-11-15T15:07:14;16.20;99.90
7998;DHT22;4044;49.814;7.828;2022-11-15T15:09:40;16.00;99.90
7998;DHT22;4044;49.814;7.828;2022-11-15T15:12:17;16.00;99.90
7998;DHT22;4044;49.814;7.828;2022-11-15T15:14:44;15.90;99.90
7998;DHT22;4044;49.814;7.828;2022-11-15T15:17:09;15.90;99.90
7998;DHT22;4044;49.814;7.828;2022-11-15T15:19:35;15.80;99.90
7998;DHT22;4044;49.814;7.828;2022-11-15T15:22:00;15.70;99.90
7998;DHT22;4044;49.814;7.828;2022-11-15T15:24:26;15.90;99.90
7998;DHT22;4044;49.814;7.828;2022-11-15T15:26:51;15.80;99.90
7998;DHT22;4044;49.814;7.828;2022-11-15T15:29:17;15.80;99.90
7998;DHT22;4044;49.814;7.828;2022-11-15T15:31:42;15.70;99.90
7998;DHT22;4044;49.814;7.828;2022-11-15T15:34:08;15.80;99.90
7998;DHT22;4044;49.814;7.828;2022-11-15T15:36:34;15.60;99.90
7998;DHT22;4044;49.814;7.828;2022-11-15T15:38:59;15.50;99.90
7998;DHT22;4044;49.814;7.828;2022-11-15T15:41:25;15.50;99.90
7998;DHT22;4044;49.814;7.828;2022-11-15T15:43:50;15.40;99.90
7998;DHT22;4044;49.814;7.828;2022-11-15T15:46:18;15.30;99.90
7998;DHT22;4044;49.814;7.828;2022-11-15T15:48:44;15.30;99.90
7998;DHT22;4044;49.814;7.828;2022-11-15T15:51:10;15.20;99.90
7998;DHT22;4044;49.814;7.828;2022-11-15T15:53:35;15.20;99.90
7998;DHT22;4044;49.814;7.828;2022-11-15T15:56:01;15.20;99.90
7998;DHT22;4044;49.814;7.828;2022-11-15T15:58:27;15.10;99.90
7998;DHT22;4044;49.814;7.828;2022-11-15T16:00:53;15.10;99.90
7998;DHT22;4044;49.814;7.828;2022-11-15T16:03:19;15.10;99.90
7998;DHT22;4044;49.814;7.828;2022-11-15T16:05:44;15.00;99.90
7998;DHT22;4044;49.814;7.828;2022-11-15T16:08:21;15.00;99.90
7998;DHT22;4044;49.814;7.828;2022-11-15T16:10:47;14.90;99.90
7998;DHT22;4044;49.814;7.828;2022-11-15T16:13:13;14.90;99.90
7998;DHT22;4044;49.814;7.828;2022-11-15T16:15:39;14.90;99.90
7998;DHT22;4044;49.814;7.828;2022-11-15T16:18:05;14.70;99.90
7998;DHT22;4044;49.814;7.828;2022-11-15T16:20:39;14.90;99.90
7998;DHT22;4044;49.814;7.828;2022-11-15T16:23:08;14.70;99.90
7998;DHT22;4044;49.814;7.828;2022-11-15T16:25:39;14.70;99.90
7998;DHT22;4044;49.814;7.828;2022-11-15T16:28:19;14.60;99.90
7998;DHT22;4044;49.814;7.828;2022-11-15T16:30:45;14.60;99.90
7998;DHT22;4044;49.814;7.828;2022-11-15T16:33:10;14.60;99.90
7998;DHT22;4044;49.814;7.828;2022-11-15T16:35:36;14.50;99.90
7998;DHT22;4044;49.814;7.828;2022-11-15T16:38:01;14.40;99.90
7998;DHT22;4044;49.814;7.828;2022-11-15T16:40:29;14.40;99.90
7998;DHT22;4044;49.814;7.828;2022-11-15T16:42:59;14.40;99.90
7998;DHT22;4044;49.814;7.828;2022-11-15T16:45:26;14.30;99.90
7998;DHT22;4044;49.814;7.828;2022-11-15T16:47:54;14.20;99.90
7998;DHT22;4044;49.814;7.828;2022-11-15T16:50:21;14.10;99.90
7998;DHT22;4044;49.814;7.828;2022-11-15T16:52:50;14.10;99.90
7998;DHT22;4044;49.814;7.828;2022-11-15T16:55:15;13.90;99.90
7998;DHT22;4044;49.814;7.828;2022-11-15T16:57:41;13.90;99.90
7998;DHT22;4044;49.814;7.828;2022-11-15T17:00:10;13.90;99.90
7998;DHT22;4044;49.814;7.828;2022-11-15T17:02:35;13.90;99.90
7998;DHT22;4044;49.814;7.828;2022-11-15T17:05:01;13.90;99.90
7998;DHT22;4044;49.814;7.828;2022-11-15T17:07:26;13.90;99.90
7998;DHT22;4044;49.814;7.828;2022-11-15T17:09:52;13.80;99.90
7998;DHT22;4044;49.814;7.828;2022-11-15T17:12:17;13.80;99.90
7998;DHT22;4044;49.814;7.828;2022-11-15T17:14:43;13.60;99.90
7998;DHT22;4044;49.814;7.828;2022-11-15T17:17:10;13.60;99.90
7998;DHT22;4044;49.814;7.828;2022-11-15T17:19:36;13.60;99.90
7998;DHT22;4044;49.814;7.828;2022-11-15T17:22:01;13.50;99.90
7998;DHT22;4044;49.814;7.828;2022-11-15T17:24:27;13.40;99.90
7998;DHT22;4044;49.814;7.828;2022-11-15T17:26:52;13.30;99.90
7998;DHT22;4044;49.814;7.828;2022-11-15T17:29:18;13.10;99.90
7998;DHT22;4044;49.814;7.828;2022-11-15T17:31:43;13.10;99.90
7998;DHT22;4044;49.814;7.828;2022-11-15T17:34:09;13.00;99.90
7998;DHT22;4044;49.814;7.828;2022-11-15T17:36:35;13.10;99.90
7998;DHT22;4044;49.814;7.828;2022-11-15T17:39:01;13.10;99.90
7998;DHT22;4044;49.814;7.828;2022-11-15T17:41:27;13.00;99.90
7998;DHT22;4044;49.814;7.828;2022-11-15T17:43:55;13.10;99.90
7998;DHT22;4044;49.814;7.828;2022-11-15T17:46:22;13.10;99.90
7998;DHT22;4044;49.814;7.828;2022-11-15T17:48:48;13.10;99.90
7998;DHT22;4044;49.814;7.828;2022-11-15T17:51:15;13.20;99.90
7998;DHT22;4044;49.814;7.828;2022-11-15T17:53:43;13.20;99.90
7998;DHT22;4044;49.814;7.828;2022-11-15T17:56:14;13.20;99.90
7998;DHT22;4044;49.814;7.828;2022-11-15T17:58:40;13.30;99.90
7998;DHT22;4044;49.814;7.828;2022-11-15T18:01:09;13.30;99.90
7998;DHT22;4044;49.814;7.828;2022-11-15T18:03:36;13.30;99.90
7998;DHT22;4044;49.814;7.828;2022-11-15T18:06:04;13.30;99.90
7998;DHT22;4044;49.814;7.828;2022-11-15T18:08:30;13.30;99.90
7998;DHT22;4044;49.814;7.828;2022-11-15T18:11:08;13.30;99.90
7998;DHT22;4044;49.814;7.828;2022-11-15T18:13:35;13.20;99.90
7998;DHT22;4044;49.814;7.828;2022-11-15T18:16:02;13.10;99.90
7998;DHT22;4044;49.814;7.828;2022-11-15T18:18:33;13.00;99.90
7998;DHT22;4044;49.814;7.828;2022-11-15T18:23:28;13.00;99.90
7998;DHT22;4044;49.814;7.828;2022-11-15T18:25:54;13.00;99.90
7998;DHT22;4044;49.814;7.828;2022-11-15T18:28:20;13.00;99.90
7998;DHT22;4044;49.814;7.828;2022-11-15T18:30:45;12.90;99.90
7998;DHT22;4044;49.814;7.828;2022-11-15T18:33:11;13.00;99.90
7998;DHT22;4044;49.814;7.828;2022-11-15T18:35:36;13.00;99.90